Time;durP1;ratioP1;P1;durP2;ratioP2;P2;SDS_P1;SDS_P2;PMS_P1;PMS_P2;Temp;Humidity;BMP_temperature;BMP_pressure;BME280_temperature;BME280_humidity;BME280_pressure;Samples;Min_cycle;Max_cycle;Signal;HPM_P1;HPM_P2
2023/05/28 04:31:06;;;;;;;23.65;7.63;;;16.40;63.80;;;;;;5685123;22;20050;-78
2023/05/28 04:33:32;;;;;;;22.23;6.93;;;16.40;63.70;;;;;;5010813;28;20120;-77
2023/05/28 04:35:58;;;;;;;17.52;6.75;;;16.40;63.90;;;;;;5012537;28;20088;-77
2023/05/28 04:38:24;;;;;;;20.50;8.23;;;16.30;64.50;;;;;;5013422;28;20034;-77
2023/05/28 04:40:50;;;;;;;25.40;7.75;;;16.30;64.60;;;;;;4995161;28;20109;-78
2023/05/28 04:43:16;;;;;;;20.35;7.55;;;16.30;64.60;;;;;;5013196;28;20125;-78
2023/05/28 04:45:43;;;;;;;18.13;7.10;;;16.30;64.80;;;;;;5013035;28;20088;-78
2023/05/28 04:48:08;;;;;;;16.25;7.53;;;16.30;63.20;;;;;;5012865;28;20032;-78
2023/05/28 04:50:35;;;;;;;20.20;6.72;;;16.30;64.90;;;;;;5013237;28;20811;-78
2023/05/28 04:53:00;;;;;;;19.63;7.10;;;16.30;64.00;;;;;;5012975;28;20072;-77
2023/05/28 04:55:26;;;;;;;19.63;7.28;;;16.30;64.70;;;;;;5012973;28;20061;-78
2023/05/28 04:57:52;;;;;;;15.77;6.93;;;16.30;65.40;;;;;;5012794;28;20056;-78
2023/05/28 05:00:18;;;;;;;17.45;7.50;;;16.30;64.50;;;;;;5012588;28;20022;-77
2023/05/28 05:02:44;;;;;;;22.90;7.95;;;16.30;64.70;;;;;;4990292;28;20615;-77
2023/05/28 05:05:11;;;;;;;15.50;6.68;;;16.30;64.90;;;;;;5005836;28;20089;-76
2023/05/28 05:07:37;;;;;;;18.83;6.93;;;16.30;64.80;;;;;;5010427;28;20442;-77
2023/05/28 05:10:09;;;;;;;17.00;7.13;;;16.30;65.10;;;;;;5015203;28;20491;-77
2023/05/28 05:12:36;;;;;;;19.33;7.00;;;16.30;64.60;;;;;;5016911;28;20078;-77
2023/05/28 05:15:08;;;;;;;15.70;6.55;;;16.40;64.50;;;;;;5016729;28;20086;-77
2023/05/28 05:17:34;;;;;;;24.05;8.82;;;16.30;64.90;;;;;;4995629;28;20030;-77
2023/05/28 05:20:04;;;;;;;20.20;7.97;;;16.30;65.00;;;;;;5013647;28;20022;-77
2023/05/28 05:22:31;;;;;;;21.40;8.07;;;16.40;65.00;;;;;;5016797;28;20021;-77
2023/05/28 05:24:57;;;;;;;21.50;7.35;;;16.40;64.40;;;;;;5016384;28;20029;-77
2023/05/28 05:27:22;;;;;;;24.20;8.40;;;16.40;64.20;;;;;;5016622;28;20037;-77
2023/05/28 05:29:48;;;;;;;19.88;7.55;;;16.40;64.80;;;;;;5016771;28;20037;-77
2023/05/28 05:32:14;;;;;;;20.45;7.22;;;16.50;65.20;;;;;;5015845;28;20397;-77
2023/05/28 05:34:40;;;;;;;22.38;7.95;;;16.50;64.00;;;;;;5016549;28;20026;-77
2023/05/28 05:37:06;;;;;;;16.85;7.70;;;16.50;63.80;;;;;;5016650;28;20022;-77
2023/05/28 05:39:32;;;;;;;16.90;7.35;;;16.50;64.60;;;;;;4998165;28;20400;-77
2023/05/28 05:41:57;;;;;;;22.25;7.63;;;16.50;64.40;;;;;;5016692;28;20103;-77
2023/05/28 05:44:23;;;;;;;14.95;6.63;;;16.60;65.20;;;;;;5015819;28;20057;-77
2023/05/28 05:46:49;;;;;;;16.70;7.15;;;16.60;64.40;;;;;;5014991;28;20030;-77
2023/05/28 05:49:14;;;;;;;16.05;7.28;;;16.60;64.70;;;;;;4994868;28;20464;-77
2023/05/28 05:51:40;;;;;;;19.17;7.65;;;16.70;64.00;;;;;;4996832;28;20026;-77
2023/05/28 05:54:06;;;;;;;18.25;7.90;;;16.70;64.10;;;;;;4997996;28;20030;-77
2023/05/28 05:56:31;;;;;;;26.73;8.05;;;16.70;64.30;;;;;;5016297;28;20033;-77
2023/05/28 05:58:58;;;;;;;20.45;7.25;;;16.80;63.80;;;;;;5016055;28;20030;-77
2023/05/28 06:01:24;;;;;;;17.35;6.82;;;16.80;63.80;;;;;;4998260;28;20026;-77
2023/05/28 06:03:50;;;;;;;21.33;6.80;;;16.80;63.50;;;;;;5015722;28;20088;-77
2023/05/28 06:06:15;;;;;;;19.50;7.32;;;16.80;64.30;;;;;;5016231;28;20057;-77
2023/05/28 06:08:41;;;;;;;19.27;6.75;;;16.90;65.20;;;;;;4994561;28;20801;-77
2023/05/28 06:11:07;;;;;;;17.25;7.07;;;16.80;64.10;;;;;;5011984;28;20057;-77
2023/05/28 06:13:35;;;;;;;18.58;7.20;;;16.90;64.20;;;;;;5022779;28;20029;-77
2023/05/28 06:16:01;;;;;;;20.15;6.90;;;16.90;65.00;;;;;;5022074;28;20511;-77
2023/05/28 06:18:26;;;;;;;17.08;7.45;;;17.00;65.10;;;;;;5022456;28;20064;-77
2023/05/28 06:20:53;;;;;;;18.63;7.53;;;17.00;65.00;;;;;;5022629;28;20033;-77
2023/05/28 06:23:18;;;;;;;18.67;7.07;;;17.10;64.90;;;;;;5021882;28;20503;-77
2023/05/28 06:25:44;;;;;;;20.25;6.82;;;17.10;65.10;;;;;;5022820;28;20030;-82
2023/05/28 06:28:10;;;;;;;19.55;7.60;;;17.20;64.90;;;;;;5005848;28;20117;-84
2023/05/28 06:30:36;;;;;;;16.30;6.38;;;17.30;64.10;;;;;;5003713;28;20057;-83
2023/05/28 06:33:02;;;;;;;18.45;7.07;;;17.30;64.80;;;;;;5001664;28;20026;-91
2023/05/28 06:35:28;;;;;;;17.40;6.68;;;17.40;64.20;;;;;;5007079;28;20036;-88
2023/05/28 06:37:53;;;;;;;19.20;6.47;;;17.50;64.40;;;;;;5006052;28;20068;-89
2023/05/28 06:40:19;;;;;;;20.13;7.13;;;17.50;63.80;;;;;;5006482;28;20053;-88
2023/05/28 06:42:45;;;;;;;16.30;6.40;;;17.60;63.60;;;;;;5006422;28;20064;-90
2023/05/28 06:45:11;;;;;;;15.18;6.75;;;17.60;64.30;;;;;;5022298;28;20034;-90
2023/05/28 06:47:37;;;;;;;15.93;6.55;;;17.70;64.50;;;;;;5006378;28;20049;-90
2023/05/28 06:50:03;;;;;;;13.18;6.80;;;17.70;64.00;;;;;;5005810;28;20452;-88
2023/05/28 06:52:29;;;;;;;16.48;6.90;;;17.70;63.50;;;;;;5005474;28;20022;-85
2023/05/28 06:54:54;;;;;;;21.02;7.38;;;17.80;63.60;;;;;;5004392;28;20806;-92
2023/05/28 06:57:21;;;;;;;25.20;7.15;;;17.80;63.00;;;;;;5005684;28;20528;-90
2023/05/28 06:59:47;;;;;;;17.65;6.20;;;17.90;62.70;;;;;;5004600;28;20034;-85
2023/05/28 07:02:12;;;;;;;17.80;6.40;;;18.00;62.80;;;;;;5004127;28;20084;-80
2023/05/28 07:04:38;;;;;;;24.63;8.05;;;18.10;63.30;;;;;;5004254;28;20034;-80
2023/05/28 07:07:05;;;;;;;13.73;6.45;;;18.20;63.00;;;;;;4997395;28;20113;-78
2023/05/28 07:09:30;;;;;;;17.83;6.55;;;18.30;62.10;;;;;;5013411;28;20042;-79
2023/05/28 07:11:56;;;;;;;16.98;5.82;;;18.30;63.10;;;;;;5020942;28;20022;-81
2023/05/28 07:14:22;;;;;;;18.58;6.68;;;18.40;63.30;;;;;;5021929;28;20025;-79
2023/05/28 07:16:48;;;;;;;18.67;6.95;;;18.50;62.80;;;;;;5021458;28;20022;-81
2023/05/28 07:19:14;;;;;;;19.75;7.07;;;18.60;62.50;;;;;;5022168;28;20022;-81
2023/05/28 07:21:40;;;;;;;15.13;6.15;;;18.80;62.10;;;;;;5016427;28;20030;-79
2023/05/28 07:24:06;;;;;;;14.52;6.80;;;19.00;61.30;;;;;;5018947;28;20065;-77
2023/05/28 07:26:32;;;;;;;20.80;5.88;;;19.60;60.70;;;;;;5016472;28;20030;-77
2023/05/28 07:29:00;;;;;;;13.73;5.50;;;20.80;58.20;;;;;;5015357;28;20034;-81
2023/05/28 07:31:26;;;;;;;16.02;5.85;;;22.40;54.50;;;;;;5006348;28;20050;-82
2023/05/28 07:33:52;;;;;;;14.93;6.55;;;24.60;49.90;;;;;;5009228;28;20096;-82
2023/05/28 07:36:17;;;;;;;11.70;5.43;;;25.80;47.10;;;;;;4989031;28;20030;-83
2023/05/28 07:38:43;;;;;;;14.63;6.03;;;26.90;44.60;;;;;;5007505;28;20083;-83
2023/05/28 07:41:09;;;;;;;17.73;6.20;;;28.00;42.20;;;;;;5008414;28;20019;-82
2023/05/28 07:43:35;;;;;;;14.70;6.40;;;29.20;40.20;;;;;;4991261;28;20034;-83
2023/05/28 07:46:00;;;;;;;13.73;6.20;;;30.40;37.60;;;;;;4991325;28;20021;-83
2023/05/28 07:48:26;;;;;;;15.60;5.88;;;31.90;35.80;;;;;;4986650;28;20022;-82
2023/05/28 07:50:53;;;;;;;17.17;6.45;;;33.00;33.80;;;;;;5010967;28;20120;-82
2023/05/28 07:53:18;;;;;;;18.58;7.03;;;34.00;32.20;;;;;;5013739;28;20026;-82
2023/05/28 07:55:44;;;;;;;14.75;5.97;;;34.60;30.70;;;;;;5016465;28;20029;-82
2023/05/28 07:58:12;;;;;;;16.40;6.13;;;35.30;30.30;;;;;;5017253;28;20041;-85
2023/05/28 08:00:38;;;;;;;15.20;6.03;;;35.10;29.90;;;;;;5018154;28;20054;-83
2023/05/28 08:03:04;;;;;;;14.40;6.28;;;35.70;29.60;;;;;;5001160;28;20061;-82
2023/05/28 08:05:30;;;;;;;14.93;6.35;;;36.30;28.80;;;;;;5018192;28;20033;-82
2023/05/28 08:34:13;;;;;;;10.00;4.03;;;23.70;55.60;;;;;;5065074;27;20381;-66
2023/05/28 12:44:53;;;;;;;;;;;30.30;37.90;;;;;;5019450;27;19921;-81
2023/05/28 12:47:19;;;;;;;9.00;3.95;;;29.80;35.80;;;;;;4923667;28;20429;-73
2023/05/28 12:49:44;;;;;;;11.43;4.88;;;29.30;37.20;;;;;;4963004;28;20452;-78
2023/05/28 12:52:10;;;;;;;8.77;4.65;;;29.20;37.40;;;;;;5018717;28;20042;-79
2023/05/28 12:54:36;;;;;;;7.32;3.90;;;29.10;37.30;;;;;;5057317;28;20030;-79
2023/05/28 12:57:02;;;;;;;6.97;4.38;;;29.20;38.00;;;;;;5035456;28;20026;-80
2023/05/28 12:59:28;;;;;;;9.52;4.28;;;29.30;35.20;;;;;;5044859;28;20022;-81
2023/05/28 13:01:55;;;;;;;8.88;4.20;;;29.30;36.30;;;;;;5030649;28;20033;-81
2023/05/28 13:04:24;;;;;;;8.27;4.50;;;29.40;36.20;;;;;;5030815;28;20108;-81
2023/05/28 13:06:51;;;;;;;11.02;4.88;;;29.40;36.10;;;;;;5032095;28;20025;-81
2023/05/28 13:09:17;;;;;;;7.30;4.10;;;29.50;36.90;;;;;;5025736;28;20025;-81
2023/05/28 13:11:44;;;;;;;7.32;4.18;;;29.30;35.50;;;;;;5026665;28;20026;-81
2023/05/28 13:14:10;;;;;;;8.15;4.68;;;29.30;35.10;;;;;;5006950;28;20044;-81
2023/05/28 13:16:36;;;;;;;8.35;4.47;;;29.30;36.70;;;;;;5029908;28;20407;-81
2023/05/28 13:19:05;;;;;;;8.15;4.38;;;29.20;37.00;;;;;;5029690;28;20034;-82
2023/05/28 13:21:31;;;;;;;8.98;4.20;;;29.10;37.00;;;;;;5026643;28;20030;-81
2023/05/28 13:24:07;;;;;;;9.32;3.97;;;29.10;37.50;;;;;;5012175;28;20030;-81
2023/05/28 13:26:34;;;;;;;10.27;4.60;;;29.00;35.70;;;;;;5042023;28;20037;-81
2023/05/28 13:29:04;;;;;;;8.70;4.28;;;28.90;35.60;;;;;;5030449;28;20022;-81
2023/05/28 13:31:30;;;;;;;10.02;4.55;;;29.10;36.50;;;;;;5064115;28;20041;-81
2023/05/28 13:33:56;;;;;;;7.55;4.18;;;29.20;36.10;;;;;;5031934;28;20022;-82
2023/05/28 13:36:22;;;;;;;10.30;4.55;;;29.30;36.40;;;;;;5015648;28;20056;-82
2023/05/28 13:38:48;;;;;;;9.27;4.80;;;29.40;37.00;;;;;;5012481;28;20485;-81
2023/05/28 13:41:15;;;;;;;9.07;4.28;;;29.50;36.00;;;;;;5027279;28;20085;-81
2023/05/28 13:43:41;;;;;;;7.60;4.25;;;29.60;35.60;;;;;;5028083;28;20050;-81
2023/05/28 13:46:06;;;;;;;8.50;4.30;;;29.30;35.50;;;;;;5026391;28;20025;-81
2023/05/28 13:48:33;;;;;;;8.05;4.10;;;29.30;36.00;;;;;;5030893;28;20188;-81
2023/05/28 13:50:59;;;;;;;8.20;4.30;;;29.30;36.30;;;;;;5026066;28;20397;-82
2023/05/28 13:53:27;;;;;;;10.25;4.70;;;29.40;36.60;;;;;;5011796;28;20049;-81
2023/05/28 13:55:52;;;;;;;9.18;4.15;;;29.30;36.00;;;;;;5001957;28;20065;-82
2023/05/28 13:58:18;;;;;;;7.18;4.22;;;29.60;36.10;;;;;;4998917;28;20030;-81
2023/05/28 14:00:44;;;;;;;7.63;4.35;;;29.90;35.90;;;;;;5030914;28;20030;-81
2023/05/28 14:03:13;;;;;;;7.80;4.47;;;29.90;35.70;;;;;;5006546;28;20097;-82
2023/05/28 14:05:39;;;;;;;9.40;4.43;;;29.40;35.60;;;;;;5018537;28;20415;-81
2023/05/28 14:08:05;;;;;;;9.13;4.90;;;29.00;36.00;;;;;;4999613;28;20114;-82
2023/05/28 14:10:30;;;;;;;8.38;4.22;;;29.00;36.40;;;;;;5006461;28;20125;-81
2023/05/28 14:12:56;;;;;;;8.93;4.32;;;29.20;37.00;;;;;;5017798;28;20034;-81
2023/05/28 14:15:22;;;;;;;8.80;4.30;;;29.20;36.20;;;;;;5018218;28;20053;-81
2023/05/28 14:17:48;;;;;;;8.45;4.18;;;29.10;36.60;;;;;;5018083;28;20388;-81
2023/05/28 14:20:13;;;;;;;8.07;4.78;;;29.20;36.40;;;;;;5005499;28;20042;-81
2023/05/28 14:22:39;;;;;;;9.00;4.30;;;29.30;35.90;;;;;;4998646;28;20034;-81
2023/05/28 14:25:05;;;;;;;7.35;4.10;;;29.40;37.00;;;;;;4998820;28;20034;-82
2023/05/28 14:27:31;;;;;;;8.80;4.22;;;29.30;36.30;;;;;;5030121;28;20023;-82
2023/05/28 14:29:56;;;;;;;8.02;4.68;;;29.20;37.00;;;;;;5002737;28;20033;-82
2023/05/28 14:32:22;;;;;;;8.30;4.03;;;29.30;37.70;;;;;;5017725;28;20484;-82
2023/05/28 14:34:48;;;;;;;8.35;4.70;;;29.40;35.80;;;;;;5001310;28;20040;-81
2023/05/28 14:37:13;;;;;;;9.68;4.72;;;29.40;36.20;;;;;;4998385;28;20034;-81
2023/05/28 14:39:39;;;;;;;9.75;4.18;;;29.30;36.60;;;;;;5032113;28;20113;-82
2023/05/28 14:42:05;;;;;;;10.27;4.57;;;29.10;37.20;;;;;;5017046;28;20037;-81
2023/05/28 14:44:31;;;;;;;7.53;4.55;;;29.20;36.30;;;;;;5016472;28;20513;-82
2023/05/28 14:46:57;;;;;;;9.27;4.85;;;29.20;37.30;;;;;;5017366;28;20109;-82
2023/05/28 14:49:22;;;;;;;7.38;4.38;;;28.90;36.50;;;;;;5017443;28;20105;-82
2023/05/28 14:51:53;;;;;;;8.30;4.38;;;28.60;36.80;;;;;;5010608;28;20501;-82
2023/05/28 14:54:19;;;;;;;8.95;4.40;;;28.80;37.10;;;;;;4998021;28;20022;-81
2023/05/28 14:56:44;;;;;;;8.48;4.50;;;28.90;36.70;;;;;;4998427;28;20503;-82
2023/05/28 14:59:10;;;;;;;8.10;4.30;;;28.90;36.80;;;;;;4997385;28;20026;-82
2023/05/28 15:01:36;;;;;;;9.00;4.20;;;28.80;37.00;;;;;;5017107;28;20032;-82
2023/05/28 15:04:01;;;;;;;9.05;4.47;;;28.80;37.30;;;;;;5014702;28;20067;-82
2023/05/28 15:06:27;;;;;;;7.75;4.30;;;28.80;37.50;;;;;;4996891;28;20030;-82
2023/05/28 15:08:53;;;;;;;9.35;4.50;;;28.90;37.60;;;;;;4997954;28;20026;-82
2023/05/28 15:11:18;;;;;;;7.72;4.50;;;28.80;37.50;;;;;;5008134;28;20026;-82
2023/05/28 15:13:44;;;;;;;8.35;4.10;;;28.80;36.50;;;;;;5017581;28;20030;-82
2023/05/28 15:16:10;;;;;;;8.05;4.10;;;28.70;36.90;;;;;;5016094;28;20022;-82
2023/05/28 15:18:35;;;;;;;7.25;4.20;;;28.60;37.00;;;;;;5015112;28;20060;-82
2023/05/28 15:21:01;;;;;;;9.32;4.20;;;28.50;37.10;;;;;;5012159;28;20030;-82
2023/05/28 15:23:27;;;;;;;7.38;4.18;;;28.40;37.90;;;;;;5006391;28;20029;-80
2023/05/28 15:25:52;;;;;;;9.23;4.72;;;28.30;37.80;;;;;;5015073;28;20038;-80
2023/05/28 15:28:18;;;;;;;7.90;4.60;;;28.30;37.50;;;;;;5015384;28;20050;-84
2023/05/28 15:30:44;;;;;;;9.20;4.47;;;28.40;38.40;;;;;;5009732;28;20568;-83
2023/05/28 15:33:10;;;;;;;8.93;4.57;;;28.50;38.40;;;;;;5012595;28;20022;-82
2023/05/28 15:35:36;;;;;;;11.05;4.45;;;28.40;39.40;;;;;;5012275;28;20034;-81
2023/05/28 15:38:02;;;;;;;7.93;4.53;;;28.20;39.00;;;;;;5013841;28;20018;-84
2023/05/28 15:40:28;;;;;;;9.98;4.80;;;28.10;38.60;;;;;;5013911;28;20026;-83
2023/05/28 15:42:56;;;;;;;9.93;4.40;;;28.30;37.90;;;;;;5014778;28;20042;-84
2023/05/28 15:45:22;;;;;;;7.57;4.30;;;28.40;38.30;;;;;;5014993;28;20025;-84
2023/05/28 15:47:48;;;;;;;9.32;4.22;;;28.50;37.70;;;;;;5011593;28;20034;-84
2023/05/28 15:50:15;;;;;;;8.02;4.70;;;28.60;37.80;;;;;;5016470;28;20082;-85
2023/05/28 15:52:41;;;;;;;9.65;4.78;;;28.80;38.00;;;;;;5006452;28;20022;-86
2023/05/28 15:55:07;;;;;;;11.05;4.47;;;28.80;38.30;;;;;;5016305;28;20021;-85
2023/05/28 15:57:33;;;;;;;6.93;4.15;;;28.70;38.90;;;;;;5010697;28;20014;-85
2023/05/28 15:59:58;;;;;;;10.07;4.53;;;28.70;38.00;;;;;;5016294;28;20121;-85
2023/05/28 16:02:27;;;;;;;8.77;4.43;;;28.70;38.80;;;;;;5012214;28;20113;-85
2023/05/28 16:04:53;;;;;;;7.95;4.57;;;28.60;38.10;;;;;;5014346;28;20037;-85
2023/05/28 16:07:19;;;;;;;9.82;4.80;;;28.50;37.60;;;;;;5014299;28;20040;-84
2023/05/28 16:09:44;;;;;;;8.80;4.60;;;28.30;38.30;;;;;;5015762;28;20095;-84
2023/05/28 16:12:12;;;;;;;11.10;4.80;;;28.30;38.80;;;;;;5014385;28;20026;-83
2023/05/28 16:14:38;;;;;;;9.45;4.78;;;28.40;38.40;;;;;;5006753;28;20026;-84
2023/05/28 16:17:05;;;;;;;7.45;4.65;;;28.50;38.70;;;;;;5012825;28;20211;-84
2023/05/28 16:19:31;;;;;;;9.35;5.03;;;28.60;39.00;;;;;;5036875;28;20448;-83
2023/05/28 16:21:57;;;;;;;8.30;4.72;;;28.20;38.50;;;;;;5013316;28;20080;-82
2023/05/28 16:24:23;;;;;;;9.73;4.85;;;28.10;39.30;;;;;;5016242;28;20057;-82
2023/05/28 16:26:50;;;;;;;9.13;4.57;;;28.00;40.00;;;;;;5013896;28;20033;-81
2023/05/28 16:29:20;;;;;;;7.97;4.63;;;28.00;39.60;;;;;;5009995;28;20018;-82
2023/05/28 16:31:47;;;;;;;10.20;5.30;;;28.00;39.40;;;;;;5017451;28;20044;-82
2023/05/28 16:34:14;;;;;;;10.30;5.07;;;28.00;39.90;;;;;;5013386;28;20441;-83
2023/05/28 16:36:40;;;;;;;9.48;5.05;;;27.90;39.30;;;;;;5027263;28;20017;-82
2023/05/28 16:39:06;;;;;;;11.13;5.55;;;27.90;39.40;;;;;;5005179;28;20114;-82
2023/05/28 16:41:32;;;;;;;9.70;5.97;;;27.90;39.90;;;;;;5014539;28;20080;-82
2023/05/28 16:43:57;;;;;;;12.00;6.18;;;27.80;40.70;;;;;;5013447;28;20570;-83
2023/05/28 16:46:25;;;;;;;10.68;5.65;;;27.80;41.20;;;;;;5015281;28;20737;-83
2023/05/28 16:48:52;;;;;;;11.88;5.85;;;27.70;41.00;;;;;;5014855;28;20072;-83
2023/05/28 16:51:18;;;;;;;12.50;5.68;;;27.70;41.20;;;;;;5012889;28;20504;-83
2023/05/28 16:53:43;;;;;;;10.70;5.93;;;27.70;41.60;;;;;;5015123;28;20080;-82
2023/05/28 16:56:10;;;;;;;10.02;6.32;;;27.60;41.80;;;;;;5015353;28;20037;-82
2023/05/28 16:58:36;;;;;;;14.60;7.68;;;27.60;41.40;;;;;;5015873;28;20041;-82
2023/05/28 17:01:04;;;;;;;12.68;6.22;;;27.50;41.50;;;;;;5014648;28;20022;-82
2023/05/28 17:03:30;;;;;;;10.88;6.28;;;27.40;41.80;;;;;;5015420;28;20113;-81
2023/05/28 17:05:55;;;;;;;10.25;5.95;;;27.40;42.50;;;;;;5011600;28;20061;-79
2023/05/28 17:08:21;;;;;;;10.82;5.50;;;27.40;42.30;;;;;;5004827;28;20031;-81
2023/05/28 17:10:47;;;;;;;9.02;6.28;;;27.30;42.40;;;;;;5002604;28;20057;-80
2023/05/28 17:13:12;;;;;;;13.18;8.02;;;27.30;42.10;;;;;;5014290;28;20026;-81
2023/05/28 17:15:39;;;;;;;11.82;6.90;;;27.30;42.20;;;;;;4995755;28;20489;-79
2023/05/28 17:18:05;;;;;;;12.38;7.30;;;27.10;44.10;;;;;;5007409;28;20022;-79
2023/05/28 17:20:35;;;;;;;13.50;6.70;;;26.90;43.70;;;;;;5021977;28;20389;-82
2023/05/28 17:23:01;;;;;;;13.85;6.60;;;26.80;44.10;;;;;;5022202;28;20025;-82
2023/05/28 17:25:26;;;;;;;11.13;6.00;;;26.50;44.90;;;;;;5042715;28;20088;-80
2023/05/28 17:27:52;;;;;;;10.77;6.25;;;26.30;45.70;;;;;;5024784;28;20029;-83
2023/05/28 17:30:19;;;;;;;11.70;6.80;;;26.10;46.70;;;;;;5024015;28;20030;-79
2023/05/28 17:32:44;;;;;;;12.13;6.18;;;26.00;46.40;;;;;;5029220;28;20022;-73
2023/05/28 17:35:10;;;;;;;13.15;6.65;;;25.80;46.60;;;;;;5023872;28;20033;-76
2023/05/28 17:37:36;;;;;;;10.27;6.53;;;25.80;47.10;;;;;;5015224;28;20030;-75
2023/05/28 17:40:01;;;;;;;12.90;6.40;;;25.80;47.10;;;;;;5017553;28;20106;-80
2023/05/28 17:42:28;;;;;;;10.13;6.28;;;25.80;47.40;;;;;;5015960;28;20530;-76
2023/05/28 17:44:53;;;;;;;11.65;6.35;;;25.80;47.70;;;;;;5016668;28;20484;-75
2023/05/28 17:47:19;;;;;;;18.35;9.07;;;25.80;48.30;;;;;;5032903;28;20022;-78
2023/05/28 17:49:46;;;;;;;20.33;11.02;;;25.70;48.50;;;;;;5014051;28;20041;-76
2023/05/28 17:52:13;;;;;;;9.68;6.03;;;25.60;48.70;;;;;;5018707;28;20060;-77
2023/05/28 17:54:38;;;;;;;23.35;14.40;;;25.50;48.80;;;;;;5019433;28;20452;-75
2023/05/28 17:57:05;;;;;;;19.38;12.45;;;25.50;49.00;;;;;;5017498;28;20026;-75
2023/05/28 17:59:30;;;;;;;20.20;9.77;;;25.40;49.10;;;;;;5049727;28;20029;-75
2023/05/28 18:01:56;;;;;;;12.95;7.78;;;25.30;48.80;;;;;;4998350;28;20505;-78
2023/05/28 18:04:22;;;;;;;13.23;6.95;;;25.30;49.30;;;;;;5016579;28;20030;-75
2023/05/28 18:06:47;;;;;;;16.83;7.90;;;25.20;49.20;;;;;;5001719;28;20034;-75
2023/05/28 18:09:13;;;;;;;14.27;8.13;;;25.10;49.80;;;;;;4998804;28;20065;-74
2023/05/28 18:11:39;;;;;;;13.25;6.63;;;25.00;49.60;;;;;;5012218;28;20437;-75
2023/05/28 18:14:04;;;;;;;17.67;8.18;;;24.90;50.00;;;;;;5006338;28;20037;-75
2023/05/28 18:16:30;;;;;;;14.57;7.82;;;24.90;50.80;;;;;;5030134;28;20492;-75
2023/05/28 18:18:56;;;;;;;14.85;7.90;;;24.80;51.80;;;;;;4998530;28;20038;-76
2023/05/28 18:21:21;;;;;;;15.45;8.30;;;24.70;52.00;;;;;;4998095;28;20020;-77
2023/05/28 18:23:50;;;;;;;19.80;8.13;;;24.70;52.60;;;;;;4998219;28;20057;-76
2023/05/28 18:26:16;;;;;;;13.07;7.40;;;24.70;52.90;;;;;;5000232;28;20037;-76
2023/05/28 18:28:42;;;;;;;15.00;8.43;;;24.60;53.20;;;;;;4999939;28;20042;-76
2023/05/28 18:31:08;;;;;;;18.90;8.80;;;24.50;53.60;;;;;;4999499;28;20027;-74
2023/05/28 18:33:33;;;;;;;19.48;8.50;;;24.30;53.90;;;;;;5011347;28;20080;-77
2023/05/28 18:36:04;;;;;;;14.77;8.40;;;24.30;54.20;;;;;;5014007;28;20041;-81
2023/05/28 18:38:32;;;;;;;18.17;8.73;;;24.30;54.50;;;;;;5026857;28;20084;-81
2023/05/28 18:41:00;;;;;;;18.92;8.73;;;24.20;54.80;;;;;;5048848;28;20024;-83
2023/05/28 18:43:26;;;;;;;18.25;8.10;;;24.10;55.20;;;;;;5015233;28;20058;-91
2023/05/28 18:45:52;;;;;;;16.75;8.23;;;24.10;54.70;;;;;;5017806;28;20022;-80
2023/05/28 18:48:17;;;;;;;18.80;8.02;;;24.30;54.30;;;;;;5016787;28;20042;-87
2023/05/28 18:50:45;;;;;;;19.42;8.90;;;24.30;53.90;;;;;;5017692;28;20036;-84
2023/05/28 18:53:11;;;;;;;16.67;8.13;;;24.30;53.70;;;;;;5016404;28;20033;-86
2023/05/28 18:55:37;;;;;;;20.02;9.13;;;24.40;53.70;;;;;;5015714;28;20105;-87
2023/05/28 18:58:02;;;;;;;18.90;9.20;;;24.40;53.80;;;;;;5016562;28;20033;-86
2023/05/28 19:00:28;;;;;;;17.67;8.48;;;24.30;53.80;;;;;;5016202;28;20018;-84
2023/05/28 19:02:55;;;;;;;17.08;9.05;;;24.30;53.80;;;;;;5014028;28;20057;-84
2023/05/28 19:05:21;;;;;;;16.55;8.07;;;24.30;53.80;;;;;;5015014;28;20026;-90
2023/05/28 19:07:47;;;;;;;18.25;8.68;;;24.20;54.00;;;;;;5016235;28;20065;-82
2023/05/28 19:10:13;;;;;;;16.15;8.45;;;24.10;54.00;;;;;;5013278;28;20026;-94
2023/05/28 19:12:39;;;;;;;18.83;9.10;;;24.20;53.90;;;;;;5006020;28;20368;-86
2023/05/28 19:15:05;;;;;;;16.67;9.20;;;24.00;54.30;;;;;;5039878;28;20030;-83
2023/05/28 19:17:31;;;;;;;17.60;8.68;;;24.00;54.00;;;;;;4999651;28;20022;-83
2023/05/28 19:19:57;;;;;;;19.10;8.50;;;23.90;53.80;;;;;;5014018;28;20064;-82
2023/05/28 19:22:22;;;;;;;15.85;8.30;;;23.90;54.20;;;;;;5002143;28;20096;-82
2023/05/28 19:24:48;;;;;;;20.95;8.27;;;23.80;54.10;;;;;;5007586;28;20543;-81
2023/05/28 19:27:14;;;;;;;14.48;6.78;;;23.80;54.20;;;;;;5003361;28;20113;-83
2023/05/28 19:29:40;;;;;;;20.95;7.82;;;23.70;54.30;;;;;;5006306;28;20042;-83
2023/05/28 19:32:06;;;;;;;18.58;7.82;;;23.60;54.10;;;;;;5005264;28;20458;-82
2023/05/28 19:34:32;;;;;;;16.10;7.80;;;23.50;53.90;;;;;;5004794;28;20044;-81
2023/05/28 19:36:58;;;;;;;19.45;8.13;;;23.50;54.10;;;;;;5007036;28;20101;-82
2023/05/28 19:39:24;;;;;;;18.73;7.82;;;23.40;54.00;;;;;;5021533;28;20756;-83
2023/05/28 19:41:49;;;;;;;18.10;8.27;;;23.40;54.10;;;;;;5006747;28;20026;-78
2023/05/28 19:44:15;;;;;;;17.77;8.23;;;23.30;54.10;;;;;;5005255;28;20046;-78
2023/05/28 19:46:40;;;;;;;14.68;7.32;;;23.30;54.00;;;;;;5009479;28;20077;-78
2023/05/28 19:49:06;;;;;;;17.45;8.02;;;23.20;54.10;;;;;;5010506;28;20030;-78
2023/05/28 19:51:32;;;;;;;16.45;7.63;;;23.10;54.20;;;;;;5007802;28;20048;-79
2023/05/28 19:53:57;;;;;;;18.02;7.40;;;23.10;54.30;;;;;;5008402;28;20030;-86
2023/05/28 19:56:23;;;;;;;18.48;7.45;;;23.00;54.50;;;;;;5008026;28;20030;-81
2023/05/28 19:58:49;;;;;;;16.02;8.07;;;23.00;54.60;;;;;;5010800;28;20088;-78
2023/05/28 20:01:15;;;;;;;16.52;7.50;;;22.90;54.60;;;;;;5009012;28;20026;-79
2023/05/28 20:03:42;;;;;;;18.60;7.63;;;22.80;54.70;;;;;;5009211;28;20080;-78
2023/05/28 20:06:08;;;;;;;18.42;7.70;;;22.80;54.80;;;;;;5009490;28;20030;-79
2023/05/28 20:08:33;;;;;;;15.60;7.57;;;22.80;55.10;;;;;;5009341;28;20029;-78
2023/05/28 20:10:59;;;;;;;16.20;6.95;;;22.70;55.10;;;;;;5009391;28;20071;-78
2023/05/28 20:13:28;;;;;;;17.60;7.60;;;22.70;55.30;;;;;;5007292;28;20033;-78
2023/05/28 20:15:54;;;;;;;14.45;7.25;;;22.60;55.30;;;;;;5023503;28;20033;-78
2023/05/28 20:18:19;;;;;;;14.57;7.05;;;22.60;55.20;;;;;;5007080;28;20034;-79
2023/05/28 20:20:46;;;;;;;18.52;6.97;;;22.50;55.40;;;;;;5009031;28;20500;-78
2023/05/28 20:23:11;;;;;;;17.00;6.90;;;22.40;55.40;;;;;;5005734;28;20109;-78
2023/05/28 20:25:38;;;;;;;13.50;6.25;;;22.30;55.30;;;;;;5006641;28;20411;-78
2023/05/28 20:28:04;;;;;;;16.77;6.85;;;22.20;55.20;;;;;;5006110;28;20042;-78
2023/05/28 20:30:30;;;;;;;16.13;6.82;;;22.20;55.20;;;;;;5006548;28;20045;-78
2023/05/28 20:32:58;;;;;;;14.45;7.32;;;22.20;55.20;;;;;;5006691;28;20033;-78
2023/05/28 20:35:27;;;;;;;14.23;6.47;;;22.20;55.30;;;;;;5009360;28;20026;-80
2023/05/28 20:38:00;;;;;;;15.23;6.65;;;22.10;55.40;;;;;;5010166;28;20040;-80
2023/05/28 20:40:29;;;;;;;15.32;6.70;;;22.00;55.50;;;;;;5009108;28;20022;-77
2023/05/28 20:42:55;;;;;;;18.48;7.40;;;22.00;55.70;;;;;;5007082;28;20068;-77
2023/05/28 20:45:21;;;;;;;13.23;6.32;;;22.00;55.80;;;;;;5008531;28;20065;-77
2023/05/28 20:47:47;;;;;;;14.23;6.63;;;21.90;55.90;;;;;;5003914;28;20407;-77
2023/05/28 20:50:13;;;;;;;16.02;6.55;;;21.90;55.90;;;;;;5011736;28;20029;-77
2023/05/28 20:52:39;;;;;;;15.25;7.13;;;21.80;55.90;;;;;;5010610;28;20025;-77
2023/05/28 20:55:08;;;;;;;17.00;7.03;;;21.80;56.00;;;;;;5011268;28;20036;-77
2023/05/28 20:57:48;;;;;;;14.43;6.55;;;21.70;56.20;;;;;;5014879;28;20026;-76
2023/05/28 21:00:15;;;;;;;12.30;5.97;;;21.70;56.10;;;;;;5012886;28;20022;-77
2023/05/28 21:02:41;;;;;;;15.77;6.63;;;21.70;56.10;;;;;;5009947;28;20048;-77
2023/05/28 21:05:07;;;;;;;12.70;6.05;;;21.60;56.30;;;;;;5009267;28;20396;-77
2023/05/28 21:07:33;;;;;;;17.63;6.68;;;21.50;56.40;;;;;;5017902;28;20518;-77
2023/05/28 21:09:59;;;;;;;15.93;6.45;;;21.50;56.40;;;;;;5017374;28;20656;-77
2023/05/28 21:12:24;;;;;;;15.38;6.97;;;21.40;56.40;;;;;;5018600;28;20152;-77
2023/05/28 21:14:50;;;;;;;16.63;6.07;;;21.40;56.60;;;;;;5044635;28;20136;-77
2023/05/28 21:17:16;;;;;;;12.57;6.47;;;21.30;56.70;;;;;;5018241;28;20026;-77
2023/05/28 21:19:42;;;;;;;14.75;6.70;;;21.30;56.90;;;;;;5048960;28;20045;-77
2023/05/28 21:22:07;;;;;;;14.57;6.07;;;21.30;56.80;;;;;;5017923;28;20057;-77
2023/05/28 21:24:33;;;;;;;16.00;6.88;;;21.20;56.80;;;;;;5017274;28;20037;-77
2023/05/28 21:26:58;;;;;;;16.33;6.00;;;21.20;57.00;;;;;;5017186;28;20049;-77
2023/05/28 21:29:24;;;;;;;17.48;6.57;;;21.20;57.20;;;;;;5015085;28;20030;-77
